sensor_id;sensor_type;location;lat;lon;timestamp;temperature;humidity
51863;DHT22;37900;52.996;6.278;2022-09-30T00:01:17;17.80;99.90
51863;DHT22;37900;52.996;6.278;2022-09-30T00:03:42;17.70;99.90
51863;DHT22;37900;52.996;6.278;2022-09-30T00:06:08;17.70;99.90
51863;DHT22;37900;52.996;6.278;2022-09-30T00:08:36;17.70;99.90
51863;DHT22;37900;52.996;6.278;2022-09-30T00:11:12;17.70;99.90
51863;DHT22;37900;52.996;6.278;2022-09-30T00:13:39;17.70;99.90
51863;DHT22;37900;52.996;6.278;2022-09-30T00:16:07;17.70;99.90
51863;DHT22;37900;52.996;6.278;2022-09-30T00:18:33;17.70;99.90
51863;DHT22;37900;52.996;6.278;2022-09-30T00:20:58;17.70;99.90
51863;DHT22;37900;52.996;6.278;2022-09-30T00:23:24;17.70;99.90
51863;DHT22;37900;52.996;6.278;2022-09-30T00:25:55;17.70;99.90
51863;DHT22;37900;52.996;6.278;2022-09-30T00:28:21;17.70;99.90
51863;DHT22;37900;52.996;6.278;2022-09-30T00:30:47;17.70;99.90
51863;DHT22;37900;52.996;6.278;2022-09-30T00:33:13;17.70;99.90
51863;DHT22;37900;52.996;6.278;2022-09-30T00:35:38;17.70;99.90
51863;DHT22;37900;52.996;6.278;2022-09-30T00:38:04;17.70;99.90
51863;DHT22;37900;52.996;6.278;2022-09-30T00:40:30;17.70;99.90
51863;DHT22;37900;52.996;6.278;2022-09-30T00:42:56;17.70;99.90
51863;DHT22;37900;52.996;6.278;2022-09-30T00:45:26;17.70;99.90
51863;DHT22;37900;52.996;6.278;2022-09-30T00:48:08;17.70;99.90
51863;DHT22;37900;52.996;6.278;2022-09-30T00:50:44;17.70;99.90
51863;DHT22;37900;52.996;6.278;2022-09-30T00:53:21;17.60;99.90
51863;DHT22;37900;52.996;6.278;2022-09-30T00:55:57;17.60;99.90
51863;DHT22;37900;52.996;6.278;2022-09-30T01:00:55;17.70;99.90
51863;DHT22;37900;52.996;6.278;2022-09-30T01:03:24;17.60;99.90
51863;DHT22;37900;52.996;6.278;2022-09-30T01:05:50;17.60;99.90
51863;DHT22;37900;52.996;6.278;2022-09-30T01:08:18;17.60;99.90
51863;DHT22;37900;52.996;6.278;2022-09-30T01:10:45;17.70;99.90
51863;DHT22;37900;52.996;6.278;2022-09-30T01:13:11;17.60;99.90
51863;DHT22;37900;52.996;6.278;2022-09-30T01:16:05;17.60;99.90
51863;DHT22;37900;52.996;6.278;2022-09-30T01:32:58;17.60;99.90
51863;DHT22;37900;52.996;6.278;2022-09-30T01:40:55;17.60;99.90
51863;DHT22;37900;52.996;6.278;2022-09-30T01:46:59;17.60;99.90
51863;DHT22;37900;52.996;6.278;2022-09-30T01:49:59;17.60;99.90
51863;DHT22;37900;52.996;6.278;2022-09-30T01:55:16;17.60;99.90
51863;DHT22;37900;52.996;6.278;2022-09-30T01:57:58;17.60;99.90
51863;DHT22;37900;52.996;6.278;2022-09-30T02:00:26;17.50;99.90
51863;DHT22;37900;52.996;6.278;2022-09-30T02:03:03;17.60;99.90
51863;DHT22;37900;52.996;6.278;2022-09-30T02:05:40;17.50;99.90
51863;DHT22;37900;52.996;6.278;2022-09-30T02:10:46;17.50;99.90
51863;DHT22;37900;52.996;6.278;2022-09-30T02:15:56;17.50;99.90
51863;DHT22;37900;52.996;6.278;2022-09-30T02:18:42;17.50;99.90
51863;DHT22;37900;52.996;6.278;2022-09-30T02:21:10;17.50;99.90
51863;DHT22;37900;52.996;6.278;2022-09-30T02:23:42;17.50;99.90
51863;DHT22;37900;52.996;6.278;2022-09-30T02:26:19;17.50;99.90
51863;DHT22;37900;52.996;6.278;2022-09-30T02:31:47;17.50;99.90
51863;DHT22;37900;52.996;6.278;2022-09-30T02:34:25;17.50;99.90
51863;DHT22;37900;52.996;6.278;2022-09-30T02:37:08;17.50;99.90
51863;DHT22;37900;52.996;6.278;2022-09-30T02:39:40;17.50;99.90
51863;DHT22;37900;52.996;6.278;2022-09-30T02:42:29;17.50;99.90
51863;DHT22;37900;52.996;6.278;2022-09-30T02:45:00;17.50;99.90
51863;DHT22;37900;52.996;6.278;2022-09-30T02:50:15;17.50;99.90
51863;DHT22;37900;52.996;6.278;2022-09-30T02:53:12;17.50;99.90
51863;DHT22;37900;52.996;6.278;2022-09-30T02:58:17;17.40;99.90
51863;DHT22;37900;52.996;6.278;2022-09-30T03:00:46;17.40;99.90
51863;DHT22;37900;52.996;6.278;2022-09-30T03:03:33;17.40;99.90
51863;DHT22;37900;52.996;6.278;2022-09-30T03:06:00;17.50;99.90
51863;DHT22;37900;52.996;6.278;2022-09-30T03:08:26;17.40;99.90
51863;DHT22;37900;52.996;6.278;2022-09-30T03:10:51;17.40;99.90
51863;DHT22;37900;52.996;6.278;2022-09-30T03:19:14;17.40;99.90
51863;DHT22;37900;52.996;6.278;2022-09-30T03:27:40;17.40;99.90
51863;DHT22;37900;52.996;6.278;2022-09-30T03:30:19;17.40;99.90
51863;DHT22;37900;52.996;6.278;2022-09-30T03:40:29;17.40;99.90
51863;DHT22;37900;52.996;6.278;2022-09-30T03:48:33;17.40;99.90
51863;DHT22;37900;52.996;6.278;2022-09-30T03:51:00;17.30;99.90
51863;DHT22;37900;52.996;6.278;2022-09-30T03:53:26;17.40;99.90
51863;DHT22;37900;52.996;6.278;2022-09-30T03:55:53;17.40;99.90
51863;DHT22;37900;52.996;6.278;2022-09-30T03:58:20;17.40;99.90
51863;DHT22;37900;52.996;6.278;2022-09-30T04:00:52;17.40;99.90
51863;DHT22;37900;52.996;6.278;2022-09-30T04:03:20;17.30;99.90
51863;DHT22;37900;52.996;6.278;2022-09-30T04:05:47;17.30;99.90
51863;DHT22;37900;52.996;6.278;2022-09-30T04:08:13;17.30;99.90
51863;DHT22;37900;52.996;6.278;2022-09-30T04:10:40;17.30;99.90
51863;DHT22;37900;52.996;6.278;2022-09-30T04:13:07;17.30;99.90
51863;DHT22;37900;52.996;6.278;2022-09-30T04:15:33;17.30;99.90
51863;DHT22;37900;52.996;6.278;2022-09-30T04:17:59;17.30;99.90
51863;DHT22;37900;52.996;6.278;2022-09-30T04:20:25;17.30;99.90
51863;DHT22;37900;52.996;6.278;2022-09-30T04:22:51;17.30;99.90
51863;DHT22;37900;52.996;6.278;2022-09-30T04:25:17;17.30;99.90
51863;DHT22;37900;52.996;6.278;2022-09-30T04:27:42;17.30;99.90
51863;DHT22;37900;52.996;6.278;2022-09-30T04:30:08;17.30;99.90
51863;DHT22;37900;52.996;6.278;2022-09-30T04:32:34;17.30;99.90
51863;DHT22;37900;52.996;6.278;2022-09-30T04:35:00;17.30;99.90
51863;DHT22;37900;52.996;6.278;2022-09-30T04:37:26;17.30;99.90
51863;DHT22;37900;52.996;6.278;2022-09-30T04:39:51;17.30;99.90
51863;DHT22;37900;52.996;6.278;2022-09-30T04:42:17;17.30;99.90
51863;DHT22;37900;52.996;6.278;2022-09-30T04:44:43;17.30;99.90
51863;DHT22;37900;52.996;6.278;2022-09-30T04:47:09;17.30;99.90
51863;DHT22;37900;52.996;6.278;2022-09-30T04:49:35;17.30;99.90
51863;DHT22;37900;52.996;6.278;2022-09-30T04:52:01;17.30;99.90
51863;DHT22;37900;52.996;6.278;2022-09-30T04:54:26;17.30;99.90
51863;DHT22;37900;52.996;6.278;2022-09-30T04:56:52;17.30;99.90
51863;DHT22;37900;52.996;6.278;2022-09-30T04:59:18;17.30;99.90
51863;DHT22;37900;52.996;6.278;2022-09-30T05:01:43;17.30;99.90
51863;DHT22;37900;52.996;6.278;2022-09-30T05:04:09;17.20;99.90
51863;DHT22;37900;52.996;6.278;2022-09-30T05:06:37;17.30;99.90
51863;DHT22;37900;52.996;6.278;2022-09-30T05:09:05;17.30;99.90
51863;DHT22;37900;52.996;6.278;2022-09-30T05:11:31;17.20;99.90
51863;DHT22;37900;52.996;6.278;2022-09-30T05:13:58;17.20;99.90
51863;DHT22;37900;52.996;6.278;2022-09-30T05:16:23;17.20;99.90
51863;DHT22;37900;52.996;6.278;2022-09-30T05:18:52;17.30;99.90
51863;DHT22;37900;52.996;6.278;2022-09-30T05:21:18;17.20;99.90
51863;DHT22;37900;52.996;6.278;2022-09-30T05:23:45;17.10;99.90
51863;DHT22;37900;52.996;6.278;2022-09-30T05:26:11;17.20;99.90
51863;DHT22;37900;52.996;6.278;2022-09-30T05:28:37;17.20;99.90
51863;DHT22;37900;52.996;6.278;2022-09-30T05:31:04;17.20;99.90
51863;DHT22;37900;52.996;6.278;2022-09-30T05:33:31;17.20;99.90
51863;DHT22;37900;52.996;6.278;2022-09-30T05:36:03;17.20;99.90
51863;DHT22;37900;52.996;6.278;2022-09-30T05:38:29;17.20;99.90
51863;DHT22;37900;52.996;6.278;2022-09-30T05:40:55;17.20;99.90
51863;DHT22;37900;52.996;6.278;2022-09-30T05:43:21;17.20;99.90
51863;DHT22;37900;52.996;6.278;2022-09-30T05:45:56;17.20;99.90
51863;DHT22;37900;52.996;6.278;2022-09-30T05:48:23;17.20;99.90
51863;DHT22;37900;52.996;6.278;2022-09-30T05:50:54;17.20;99.90
51863;DHT22;37900;52.996;6.278;2022-09-30T05:53:20;17.20;99.90
51863;DHT22;37900;52.996;6.278;2022-09-30T05:55:46;17.20;99.90
51863;DHT22;37900;52.996;6.278;2022-09-30T05:58:16;17.20;99.90
51863;DHT22;37900;52.996;6.278;2022-09-30T06:00:43;17.20;99.90
51863;DHT22;37900;52.996;6.278;2022-09-30T06:03:09;17.10;99.90
51863;DHT22;37900;52.996;6.278;2022-09-30T06:05:35;17.20;99.90
51863;DHT22;37900;52.996;6.278;2022-09-30T06:08:02;17.20;99.90
51863;DHT22;37900;52.996;6.278;2022-09-30T06:10:29;17.20;99.90
51863;DHT22;37900;52.996;6.278;2022-09-30T06:12:55;17.10;99.90
51863;DHT22;37900;52.996;6.278;2022-09-30T06:15:24;17.10;99.90
51863;DHT22;37900;52.996;6.278;2022-09-30T06:17:53;17.10;99.90
51863;DHT22;37900;52.996;6.278;2022-09-30T06:20:19;17.10;99.90
51863;DHT22;37900;52.996;6.278;2022-09-30T06:22:44;17.10;99.90
51863;DHT22;37900;52.996;6.278;2022-09-30T06:25:10;17.10;99.90
51863;DHT22;37900;52.996;6.278;2022-09-30T06:27:36;17.10;99.90
51863;DHT22;37900;52.996;6.278;2022-09-30T06:30:06;17.10;99.90
51863;DHT22;37900;52.996;6.278;2022-09-30T06:32:32;17.10;99.90
51863;DHT22;37900;52.996;6.278;2022-09-30T06:34:57;17.20;99.90
51863;DHT22;37900;52.996;6.278;2022-09-30T06:37:23;17.10;99.90
51863;DHT22;37900;52.996;6.278;2022-09-30T06:39:49;17.20;99.90
51863;DHT22;37900;52.996;6.278;2022-09-30T06:42:16;17.10;99.90
51863;DHT22;37900;52.996;6.278;2022-09-30T06:44:43;17.20;99.90
51863;DHT22;37900;52.996;6.278;2022-09-30T06:47:09;17.10;99.90
51863;DHT22;37900;52.996;6.278;2022-09-30T06:49:35;17.20;99.90
51863;DHT22;37900;52.996;6.278;2022-09-30T06:52:01;17.10;99.90
51863;DHT22;37900;52.996;6.278;2022-09-30T06:54:27;17.20;99.90
51863;DHT22;37900;52.996;6.278;2022-09-30T06:56:54;17.20;99.90
51863;DHT22;37900;52.996;6.278;2022-09-30T06:59:24;17.10;99.90
51863;DHT22;37900;52.996;6.278;2022-09-30T07:01:51;17.10;99.90
51863;DHT22;37900;52.996;6.278;2022-09-30T07:04:17;17.10;99.90
51863;DHT22;37900;52.996;6.278;2022-09-30T07:06:43;17.10;99.90
51863;DHT22;37900;52.996;6.278;2022-09-30T07:09:10;17.10;99.90
51863;DHT22;37900;52.996;6.278;2022-09-30T07:11:36;17.10;99.90
51863;DHT22;37900;52.996;6.278;2022-09-30T07:14:06;17.10;99.90
51863;DHT22;37900;52.996;6.278;2022-09-30T07:16:32;17.10;99.90
51863;DHT22;37900;52.996;6.278;2022-09-30T07:19:03;17.10;99.90
51863;DHT22;37900;52.996;6.278;2022-09-30T07:21:29;17.10;99.90
51863;DHT22;37900;52.996;6.278;2022-09-30T07:23:56;17.10;99.90
51863;DHT22;37900;52.996;6.278;2022-09-30T07:26:23;17.10;99.90
51863;DHT22;37900;52.996;6.278;2022-09-30T07:28:50;17.20;99.90
51863;DHT22;37900;52.996;6.278;2022-09-30T07:31:18;17.20;99.90
51863;DHT22;37900;52.996;6.278;2022-09-30T07:33:46;17.20;99.90
51863;DHT22;37900;52.996;6.278;2022-09-30T07:36:13;17.20;99.90
51863;DHT22;37900;52.996;6.278;2022-09-30T07:38:44;17.20;99.90
51863;DHT22;37900;52.996;6.278;2022-09-30T07:41:12;17.10;99.90
51863;DHT22;37900;52.996;6.278;2022-09-30T07:43:39;17.20;99.90
51863;DHT22;37900;52.996;6.278;2022-09-30T07:46:09;17.20;99.90
51863;DHT22;37900;52.996;6.278;2022-09-30T07:48:37;17.20;99.90
51863;DHT22;37900;52.996;6.278;2022-09-30T07:51:24;17.20;99.90
51863;DHT22;37900;52.996;6.278;2022-09-30T07:53:52;17.20;99.90
51863;DHT22;37900;52.996;6.278;2022-09-30T07:56:20;17.20;99.90
51863;DHT22;37900;52.996;6.278;2022-09-30T07:58:46;17.20;99.90
51863;DHT22;37900;52.996;6.278;2022-09-30T08:01:12;17.20;99.90
51863;DHT22;37900;52.996;6.278;2022-09-30T08:03:40;17.20;99.90
51863;DHT22;37900;52.996;6.278;2022-09-30T08:06:17;17.20;99.90
51863;DHT22;37900;52.996;6.278;2022-09-30T08:08:44;17.20;99.90
51863;DHT22;37900;52.996;6.278;2022-09-30T08:11:11;17.20;99.90
51863;DHT22;37900;52.996;6.278;2022-09-30T08:13:37;17.20;99.90
51863;DHT22;37900;52.996;6.278;2022-09-30T08:16:03;17.20;99.90
51863;DHT22;37900;52.996;6.278;2022-09-30T08:18:29;17.20;99.90
51863;DHT22;37900;52.996;6.278;2022-09-30T08:20:55;17.20;99.90
51863;DHT22;37900;52.996;6.278;2022-09-30T08:23:21;17.20;99.90
51863;DHT22;37900;52.996;6.278;2022-09-30T08:25:47;17.20;99.90
51863;DHT22;37900;52.996;6.278;2022-09-30T08:28:13;17.20;99.90
51863;DHT22;37900;52.996;6.278;2022-09-30T08:30:40;17.10;99.90
51863;DHT22;37900;52.996;6.278;2022-09-30T08:33:06;17.20;99.90
51863;DHT22;37900;52.996;6.278;2022-09-30T08:35:34;17.20;99.90
51863;DHT22;37900;52.996;6.278;2022-09-30T08:38:01;17.20;99.90
51863;DHT22;37900;52.996;6.278;2022-09-30T08:40:30;17.20;99.90
51863;DHT22;37900;52.996;6.278;2022-09-30T08:43:19;17.20;99.90
51863;DHT22;37900;52.996;6.278;2022-09-30T08:46:06;17.30;99.90
51863;DHT22;37900;52.996;6.278;2022-09-30T08:51:29;17.30;99.90
51863;DHT22;37900;52.996;6.278;2022-09-30T08:53:58;17.30;99.90
51863;DHT22;37900;52.996;6.278;2022-09-30T08:56:29;17.30;99.90
51863;DHT22;37900;52.996;6.278;2022-09-30T08:59:00;17.20;99.90
51863;DHT22;37900;52.996;6.278;2022-09-30T09:01:35;17.30;99.90
51863;DHT22;37900;52.996;6.278;2022-09-30T09:04:04;17.30;99.90
51863;DHT22;37900;52.996;6.278;2022-09-30T09:06:36;17.30;99.90
51863;DHT22;37900;52.996;6.278;2022-09-30T09:19:16;17.30;99.90
51863;DHT22;37900;52.996;6.278;2022-09-30T09:21:57;17.30;99.90
51863;DHT22;37900;52.996;6.278;2022-09-30T09:24:40;17.30;99.90
51863;DHT22;37900;52.996;6.278;2022-09-30T09:32:26;17.30;99.90
51863;DHT22;37900;52.996;6.278;2022-09-30T09:35:00;17.30;99.90
51863;DHT22;37900;52.996;6.278;2022-09-30T09:40:51;17.30;99.90
51863;DHT22;37900;52.996;6.278;2022-09-30T09:43:56;17.30;99.90
51863;DHT22;37900;52.996;6.278;2022-09-30T09:46:48;17.30;99.90
51863;DHT22;37900;52.996;6.278;2022-09-30T09:54:45;17.30;99.90
51863;DHT22;37900;52.996;6.278;2022-09-30T09:57:14;17.30;99.90
51863;DHT22;37900;52.996;6.278;2022-09-30T10:05:33;17.30;99.90
51863;DHT22;37900;52.996;6.278;2022-09-30T10:08:21;17.30;99.90
51863;DHT22;37900;52.996;6.278;2022-09-30T10:13:25;17.30;99.90
51863;DHT22;37900;52.996;6.278;2022-09-30T10:15:58;17.30;99.90
51863;DHT22;37900;52.996;6.278;2022-09-30T10:18:33;17.30;99.90
51863;DHT22;37900;52.996;6.278;2022-09-30T10:21:05;17.30;99.90
51863;DHT22;37900;52.996;6.278;2022-09-30T10:23:37;17.30;99.90
51863;DHT22;37900;52.996;6.278;2022-09-30T10:26:18;17.30;99.90
51863;DHT22;37900;52.996;6.278;2022-09-30T10:31:50;17.30;99.90
51863;DHT22;37900;52.996;6.278;2022-09-30T10:34:27;17.30;99.90
51863;DHT22;37900;52.996;6.278;2022-09-30T10:36:55;17.30;99.90
51863;DHT22;37900;52.996;6.278;2022-09-30T10:39:25;17.30;99.90
51863;DHT22;37900;52.996;6.278;2022-09-30T10:44:43;17.30;99.90
51863;DHT22;37900;52.996;6.278;2022-09-30T10:47:15;17.30;99.90
51863;DHT22;37900;52.996;6.278;2022-09-30T10:49:46;17.30;99.90
51863;DHT22;37900;52.996;6.278;2022-09-30T10:52:22;17.30;99.90
51863;DHT22;37900;52.996;6.278;2022-09-30T10:54:51;17.40;99.90
51863;DHT22;37900;52.996;6.278;2022-09-30T10:57:22;17.40;99.90
51863;DHT22;37900;52.996;6.278;2022-09-30T10:59:50;17.40;99.90
51863;DHT22;37900;52.996;6.278;2022-09-30T11:02:24;17.30;99.90
51863;DHT22;37900;52.996;6.278;2022-09-30T11:07:38;17.40;99.90
51863;DHT22;37900;52.996;6.278;2022-09-30T11:18:22;17.40;99.90
51863;DHT22;37900;52.996;6.278;2022-09-30T11:20:58;17.40;99.90
51863;DHT22;37900;52.996;6.278;2022-09-30T11:23:33;17.40;99.90
51863;DHT22;37900;52.996;6.278;2022-09-30T11:34:45;17.40;99.90
51863;DHT22;37900;52.996;6.278;2022-09-30T11:42:24;17.40;99.90
51863;DHT22;37900;52.996;6.278;2022-09-30T11:59:33;17.40;99.90
51863;DHT22;37900;52.996;6.278;2022-09-30T12:02:03;17.40;99.90
51863;DHT22;37900;52.996;6.278;2022-09-30T12:04:39;17.40;99.90
51863;DHT22;37900;52.996;6.278;2022-09-30T12:07:19;17.40;99.90
51863;DHT22;37900;52.996;6.278;2022-09-30T12:09:50;17.40;99.90
51863;DHT22;37900;52.996;6.278;2022-09-30T12:12:18;17.40;99.90
51863;DHT22;37900;52.996;6.278;2022-09-30T12:15:02;17.40;99.90
51863;DHT22;37900;52.996;6.278;2022-09-30T12:17:38;17.40;99.90
51863;DHT22;37900;52.996;6.278;2022-09-30T12:23:26;17.40;99.90
51863;DHT22;37900;52.996;6.278;2022-09-30T12:25:58;17.40;99.90
51863;DHT22;37900;52.996;6.278;2022-09-30T12:41:53;17.40;99.90
51863;DHT22;37900;52.996;6.278;2022-09-30T12:47:13;17.40;99.90
51863;DHT22;37900;52.996;6.278;2022-09-30T12:49:42;17.40;99.90
51863;DHT22;37900;52.996;6.278;2022-09-30T12:52:15;17.40;99.90
51863;DHT22;37900;52.996;6.278;2022-09-30T12:57:28;17.40;99.90
51863;DHT22;37900;52.996;6.278;2022-09-30T13:00:00;17.40;99.90
51863;DHT22;37900;52.996;6.278;2022-09-30T13:02:38;17.40;99.90
51863;DHT22;37900;52.996;6.278;2022-09-30T13:08:08;17.40;99.90
51863;DHT22;37900;52.996;6.278;2022-09-30T13:13:21;17.40;99.90
51863;DHT22;37900;52.996;6.278;2022-09-30T13:15:49;17.40;99.90
51863;DHT22;37900;52.996;6.278;2022-09-30T13:23:42;17.40;99.90
51863;DHT22;37900;52.996;6.278;2022-09-30T13:31:27;17.40;99.90
51863;DHT22;37900;52.996;6.278;2022-09-30T13:36:40;17.40;99.90
51863;DHT22;37900;52.996;6.278;2022-09-30T13:42:10;17.50;99.90
51863;DHT22;37900;52.996;6.278;2022-09-30T13:44:55;17.50;99.90
51863;DHT22;37900;52.996;6.278;2022-09-30T13:47:28;17.40;99.90
51863;DHT22;37900;52.996;6.278;2022-09-30T13:50:17;17.50;99.90
51863;DHT22;37900;52.996;6.278;2022-09-30T13:52:47;17.50;99.90
51863;DHT22;37900;52.996;6.278;2022-09-30T13:55:24;17.50;99.90
51863;DHT22;37900;52.996;6.278;2022-09-30T13:58:31;17.50;99.90
51863;DHT22;37900;52.996;6.278;2022-09-30T14:19:29;17.50;99.90
51863;DHT22;37900;52.996;6.278;2022-09-30T14:22:01;17.50;99.90
51863;DHT22;37900;52.996;6.278;2022-09-30T14:24:35;17.50;99.90
51863;DHT22;37900;52.996;6.278;2022-09-30T14:29:54;17.50;99.90
51863;DHT22;37900;52.996;6.278;2022-09-30T14:32:45;17.50;99.90
51863;DHT22;37900;52.996;6.278;2022-09-30T14:35:18;17.50;99.90
51863;DHT22;37900;52.996;6.278;2022-09-30T14:37:52;17.50;99.90
51863;DHT22;37900;52.996;6.278;2022-09-30T14:40:24;17.50;99.90
51863;DHT22;37900;52.996;6.278;2022-09-30T14:42:51;17.50;99.90
51863;DHT22;37900;52.996;6.278;2022-09-30T14:45:28;17.50;99.90
51863;DHT22;37900;52.996;6.278;2022-09-30T14:48:00;17.50;99.90
51863;DHT22;37900;52.996;6.278;2022-09-30T14:50:29;17.50;99.90
51863;DHT22;37900;52.996;6.278;2022-09-30T14:52:58;17.50;99.90
51863;DHT22;37900;52.996;6.278;2022-09-30T14:55:31;17.50;99.90
51863;DHT22;37900;52.996;6.278;2022-09-30T15:01:06;17.50;99.90
51863;DHT22;37900;52.996;6.278;2022-09-30T15:03:44;17.50;99.90
51863;DHT22;37900;52.996;6.278;2022-09-30T15:06:25;17.50;99.90
51863;DHT22;37900;52.996;6.278;2022-09-30T15:09:14;17.50;99.90
51863;DHT22;37900;52.996;6.278;2022-09-30T15:11:40;17.50;99.90
51863;DHT22;37900;52.996;6.278;2022-09-30T15:14:13;17.50;99.90
51863;DHT22;37900;52.996;6.278;2022-09-30T15:16:47;17.50;99.90
51863;DHT22;37900;52.996;6.278;2022-09-30T15:19:42;17.50;99.90
51863;DHT22;37900;52.996;6.278;2022-09-30T15:22:09;17.50;99.90
51863;DHT22;37900;52.996;6.278;2022-09-30T15:24:37;17.50;99.90
51863;DHT22;37900;52.996;6.278;2022-09-30T15:27:05;17.50;99.90
51863;DHT22;37900;52.996;6.278;2022-09-30T15:29:35;17.50;99.90
51863;DHT22;37900;52.996;6.278;2022-09-30T15:32:13;17.50;99.90
51863;DHT22;37900;52.996;6.278;2022-09-30T15:34:40;17.50;99.90
51863;DHT22;37900;52.996;6.278;2022-09-30T15:37:20;17.50;99.90
51863;DHT22;37900;52.996;6.278;2022-09-30T15:39:47;17.50;99.90
51863;DHT22;37900;52.996;6.278;2022-09-30T15:45:17;17.50;99.90
51863;DHT22;37900;52.996;6.278;2022-09-30T15:50:43;17.50;99.90
51863;DHT22;37900;52.996;6.278;2022-09-30T15:53:22;17.50;99.90
51863;DHT22;37900;52.996;6.278;2022-09-30T15:55:53;17.50;99.90
51863;DHT22;37900;52.996;6.278;2022-09-30T15:58:33;17.50;99.90
51863;DHT22;37900;52.996;6.278;2022-09-30T16:01:31;17.50;99.90
51863;DHT22;37900;52.996;6.278;2022-09-30T16:04:11;17.50;99.90
51863;DHT22;37900;52.996;6.278;2022-09-30T16:12:14;17.50;99.90
51863;DHT22;37900;52.996;6.278;2022-09-30T16:14:52;17.50;99.90
51863;DHT22;37900;52.996;6.278;2022-09-30T16:19:55;17.50;99.90
51863;DHT22;37900;52.996;6.278;2022-09-30T16:27:45;17.50;99.90
51863;DHT22;37900;52.996;6.278;2022-09-30T16:30:16;17.50;99.90
51863;DHT22;37900;52.996;6.278;2022-09-30T16:32:46;17.50;99.90
51863;DHT22;37900;52.996;6.278;2022-09-30T16:35:20;17.50;99.90
51863;DHT22;37900;52.996;6.278;2022-09-30T16:37:48;17.50;99.90
51863;DHT22;37900;52.996;6.278;2022-09-30T16:40:22;17.50;99.90
51863;DHT22;37900;52.996;6.278;2022-09-30T16:42:49;17.50;99.90
51863;DHT22;37900;52.996;6.278;2022-09-30T16:45:19;17.50;99.90
51863;DHT22;37900;52.996;6.278;2022-09-30T16:47:45;17.50;99.90
51863;DHT22;37900;52.996;6.278;2022-09-30T16:50:29;17.50;99.90
51863;DHT22;37900;52.996;6.278;2022-09-30T16:52:56;17.50;99.90
51863;DHT22;37900;52.996;6.278;2022-09-30T16:55:23;17.50;99.90
51863;DHT22;37900;52.996;6.278;2022-09-30T16:57:50;17.50;99.90
51863;DHT22;37900;52.996;6.278;2022-09-30T17:00:16;17.50;99.90
51863;DHT22;37900;52.996;6.278;2022-09-30T17:02:47;17.50;99.90
51863;DHT22;37900;52.996;6.278;2022-09-30T17:05:15;17.50;99.90
51863;DHT22;37900;52.996;6.278;2022-09-30T17:07:49;17.50;99.90
51863;DHT22;37900;52.996;6.278;2022-09-30T17:10:27;17.50;99.90
51863;DHT22;37900;52.996;6.278;2022-09-30T17:12:54;17.50;99.90
51863;DHT22;37900;52.996;6.278;2022-09-30T17:15:20;17.50;99.90
51863;DHT22;37900;52.996;6.278;2022-09-30T17:17:47;17.50;99.90
51863;DHT22;37900;52.996;6.278;2022-09-30T17:20:13;17.50;99.90
51863;DHT22;37900;52.996;6.278;2022-09-30T17:22:39;17.50;99.90
51863;DHT22;37900;52.996;6.278;2022-09-30T17:25:05;17.50;99.90
51863;DHT22;37900;52.996;6.278;2022-09-30T17:27:31;17.60;99.90
51863;DHT22;37900;52.996;6.278;2022-09-30T17:29:57;17.60;99.90
51863;DHT22;37900;52.996;6.278;2022-09-30T17:32:22;17.60;99.90
51863;DHT22;37900;52.996;6.278;2022-09-30T17:34:48;17.60;99.90
51863;DHT22;37900;52.996;6.278;2022-09-30T17:37:14;17.60;99.90
51863;DHT22;37900;52.996;6.278;2022-09-30T17:39:40;17.60;99.90
51863;DHT22;37900;52.996;6.278;2022-09-30T17:42:10;17.60;99.90
51863;DHT22;37900;52.996;6.278;2022-09-30T17:44:55;17.60;99.90
51863;DHT22;37900;52.996;6.278;2022-09-30T17:47:22;17.60;99.90
51863;DHT22;37900;52.996;6.278;2022-09-30T17:49:48;17.60;99.90
51863;DHT22;37900;52.996;6.278;2022-09-30T17:52:14;17.60;99.90
51863;DHT22;37900;52.996;6.278;2022-09-30T17:54:40;17.60;99.90
51863;DHT22;37900;52.996;6.278;2022-09-30T17:57:06;17.60;99.90
51863;DHT22;37900;52.996;6.278;2022-09-30T17:59:33;17.60;99.90
51863;DHT22;37900;52.996;6.278;2022-09-30T18:01:58;17.60;99.90
51863;DHT22;37900;52.996;6.278;2022-09-30T18:04:24;17.60;99.90
51863;DHT22;37900;52.996;6.278;2022-09-30T18:06:52;17.60;99.90
51863;DHT22;37900;52.996;6.278;2022-09-30T18:09:18;17.60;99.90
51863;DHT22;37900;52.996;6.278;2022-09-30T18:11:43;17.60;99.90
51863;DHT22;37900;52.996;6.278;2022-09-30T18:14:10;17.60;99.90
51863;DHT22;37900;52.996;6.278;2022-09-30T18:16:36;17.60;99.90
51863;DHT22;37900;52.996;6.278;2022-09-30T18:19:03;17.60;99.90
51863;DHT22;37900;52.996;6.278;2022-09-30T18:21:31;17.60;99.90
51863;DHT22;37900;52.996;6.278;2022-09-30T18:23:57;17.60;99.90
51863;DHT22;37900;52.996;6.278;2022-09-30T18:26:25;17.60;99.90
51863;DHT22;37900;52.996;6.278;2022-09-30T18:28:51;17.60;99.90
51863;DHT22;37900;52.996;6.278;2022-09-30T18:31:21;17.60;99.90
51863;DHT22;37900;52.996;6.278;2022-09-30T18:33:57;17.60;99.90
51863;DHT22;37900;52.996;6.278;2022-09-30T18:36:24;17.70;99.90
51863;DHT22;37900;52.996;6.278;2022-09-30T18:39:01;17.60;99.90
51863;DHT22;37900;52.996;6.278;2022-09-30T18:41:27;17.60;99.90
51863;DHT22;37900;52.996;6.278;2022-09-30T18:43:55;17.70;99.90
51863;DHT22;37900;52.996;6.278;2022-09-30T18:46:27;17.70;99.90
51863;DHT22;37900;52.996;6.278;2022-09-30T18:48:53;17.70;99.90
51863;DHT22;37900;52.996;6.278;2022-09-30T18:51:21;17.70;99.90
51863;DHT22;37900;52.996;6.278;2022-09-30T18:53:55;17.70;99.90
51863;DHT22;37900;52.996;6.278;2022-09-30T18:56:27;17.70;99.90
51863;DHT22;37900;52.996;6.278;2022-09-30T18:58:59;17.70;99.90
51863;DHT22;37900;52.996;6.278;2022-09-30T19:01:25;17.70;99.90
51863;DHT22;37900;52.996;6.278;2022-09-30T19:03:52;17.80;99.90
51863;DHT22;37900;52.996;6.278;2022-09-30T19:06:18;17.80;99.90
51863;DHT22;37900;52.996;6.278;2022-09-30T19:08:44;17.80;99.90
51863;DHT22;37900;52.996;6.278;2022-09-30T19:11:11;17.80;99.90
51863;DHT22;37900;52.996;6.278;2022-09-30T19:13:43;17.80;99.90
51863;DHT22;37900;52.996;6.278;2022-09-30T19:16:10;17.80;99.90
51863;DHT22;37900;52.996;6.278;2022-09-30T19:18:41;17.80;99.90
51863;DHT22;37900;52.996;6.278;2022-09-30T19:21:11;17.80;99.90
51863;DHT22;37900;52.996;6.278;2022-09-30T19:23:38;17.90;99.90
51863;DHT22;37900;52.996;6.278;2022-09-30T19:26:05;17.90;99.90
51863;DHT22;37900;52.996;6.278;2022-09-30T19:28:31;17.90;99.90
51863;DHT22;37900;52.996;6.278;2022-09-30T19:30:58;17.90;99.90
51863;DHT22;37900;52.996;6.278;2022-09-30T19:33:28;17.90;99.90
51863;DHT22;37900;52.996;6.278;2022-09-30T19:36:06;18.00;99.90
51863;DHT22;37900;52.996;6.278;2022-09-30T19:38:33;18.00;99.90
51863;DHT22;37900;52.996;6.278;2022-09-30T19:40:59;18.00;99.90
51863;DHT22;37900;52.996;6.278;2022-09-30T19:43:27;18.00;99.90
51863;DHT22;37900;52.996;6.278;2022-09-30T19:45:59;18.00;99.90